Wendover, United Kingdom
Current Conditions -  °F | °C
As of 12:50 PM on Saturday 20 Dec 2014 (Local Time) from EGGW Reporting Station
Few Clouds Few Clouds  
Wind Chill: 39°   Ceiling: Unl
Heat Index: 46°   Visibility: 6mi
Dew Point: 37°   Wind: 22mph
Humidity: 71%   Direction: 280°W
Pressure: 30.24"   Gusts: NA
Location:  51.76°N, 0.74°W
Report Text: EGGW 201250Z 28019KT 9999 FEW030 08/03 Q1024
Loading
Personal Weather Stations






























Interactive Weather Map New forecast layout! Learn more

10-Day Weather Forecast

Advertisements
Track Severe Weather on mobile